createdAt,value
2019-02-25T00:01:15.473Z,102683.00
2019-02-25T00:03:44.319Z,102673.00
2019-02-25T00:06:12.295Z,102676.00
2019-02-25T00:08:40.315Z,102668.00
2019-02-25T00:11:08.561Z,102674.00
2019-02-25T00:13:36.497Z,102662.00
2019-02-25T00:16:04.447Z,102665.00
2019-02-25T00:18:32.493Z,102651.00
2019-02-25T00:21:01.414Z,102655.00
2019-02-25T00:23:29.373Z,102662.00
2019-02-25T00:25:58.167Z,102666.00
2019-02-25T00:28:26.194Z,102656.00
2019-02-25T00:30:54.146Z,102658.00
2019-02-25T00:33:22.155Z,102666.00
2019-02-25T00:35:50.101Z,102672.00
2019-02-25T00:38:18.134Z,102667.00
2019-02-25T00:40:46.387Z,102678.00
2019-02-25T00:43:14.332Z,102671.00
2019-02-25T00:45:42.466Z,102678.00
2019-02-25T00:48:10.379Z,102676.00
2019-02-25T00:50:38.364Z,102690.00
2019-02-25T00:53:06.303Z,102681.00
2019-02-25T00:55:34.208Z,102679.00
2019-02-25T00:58:02.410Z,102677.00
2019-02-25T01:00:30.484Z,102679.00
2019-02-25T01:02:58.970Z,102688.00
2019-02-25T01:05:26.937Z,102686.00
2019-02-25T01:07:54.889Z,102689.00
2019-02-25T01:10:23.125Z,102682.00
2019-02-25T01:12:51.121Z,102688.00
2019-02-25T01:15:19.063Z,102692.00
2019-02-25T01:18:00.779Z,102689.00
2019-02-25T01:20:48.247Z,102683.00
2019-02-25T01:23:16.259Z,102691.00
2019-02-25T01:26:03.664Z,102686.00
2019-02-25T01:28:31.662Z,102683.00
2019-02-25T01:31:19.207Z,102484.00
2019-02-25T01:34:01.600Z,102689.00
2019-02-25T01:36:49.326Z,102830.00
2019-02-25T01:39:30.013Z,102685.00
2019-02-25T01:42:17.618Z,102737.00
2019-02-25T01:44:59.606Z,102682.00
2019-02-25T01:47:47.165Z,102684.00
2019-02-25T01:50:29.544Z,102679.00
2019-02-25T01:52:58.441Z,102678.00
2019-02-25T01:55:26.683Z,102675.00
2019-02-25T01:58:14.223Z,102671.00
2019-02-25T02:00:42.341Z,102670.00
2019-02-25T02:03:10.264Z,102669.00
2019-02-25T02:05:38.253Z,102668.00
2019-02-25T02:08:06.203Z,102673.00
2019-02-25T02:10:53.796Z,102391.00
2019-02-25T02:13:35.056Z,102499.00
2019-02-25T02:16:02.984Z,102666.00
2019-02-25T02:18:43.854Z,102662.00
2019-02-25T02:21:31.210Z,102663.00
2019-02-25T02:24:12.602Z,102348.00
2019-02-25T02:27:00.389Z,102791.00
2019-02-25T02:29:41.127Z,102678.00
2019-02-25T02:32:28.947Z,102633.00
2019-02-25T02:35:10.502Z,102654.00
2019-02-25T02:37:58.158Z,102690.00
2019-02-25T02:40:39.584Z,102716.00
2019-02-25T02:43:26.972Z,102714.00
2019-02-25T02:46:27.367Z,102689.00
2019-02-25T02:49:08.838Z,102665.00
2019-02-25T02:51:36.937Z,102667.00
2019-02-25T02:54:04.929Z,102672.00
2019-02-25T02:56:34.240Z,102675.00
2019-02-25T02:59:16.373Z,102667.00
2019-02-25T03:02:03.921Z,102344.00
2019-02-25T03:04:31.910Z,102672.00
2019-02-25T03:06:59.857Z,102667.00
2019-02-25T03:09:27.931Z,102662.00
2019-02-25T03:11:55.960Z,102662.00
2019-02-25T03:14:23.974Z,102652.00
2019-02-25T03:16:52.207Z,102655.00
2019-02-25T03:19:20.388Z,102650.00
2019-02-25T03:21:48.429Z,102652.00
2019-02-25T03:24:17.422Z,102644.00
2019-02-25T03:26:58.922Z,102750.00
2019-02-25T03:29:26.868Z,102652.00
2019-02-25T03:32:14.340Z,102718.00
2019-02-25T03:34:56.069Z,102605.00
2019-02-25T03:37:43.512Z,102367.00
2019-02-25T03:40:25.259Z,102439.00
2019-02-25T03:43:12.646Z,102390.00
2019-02-25T03:45:53.376Z,102654.00
2019-02-25T03:48:40.728Z,102524.00
2019-02-25T03:51:08.691Z,102651.00
2019-02-25T03:53:36.568Z,102660.00
2019-02-25T03:56:04.589Z,102653.00
2019-02-25T03:58:32.602Z,102660.00
2019-02-25T04:01:00.581Z,102657.00
2019-02-25T04:03:28.596Z,102654.00
2019-02-25T04:05:56.807Z,102649.00
2019-02-25T04:08:45.858Z,102727.00
2019-02-25T04:11:28.383Z,102700.00
2019-02-25T04:13:56.342Z,102653.00
2019-02-25T04:16:25.038Z,102661.00
2019-02-25T04:18:52.955Z,102669.00
2019-02-25T04:21:21.010Z,102664.00
2019-02-25T04:23:49.193Z,102666.00
2019-02-25T04:26:17.233Z,102664.00
2019-02-25T04:28:45.210Z,102665.00
2019-02-25T04:31:33.507Z,102591.00
2019-02-25T04:34:18.877Z,102675.00
2019-02-25T04:37:06.468Z,102791.00
2019-02-25T04:39:48.853Z,102676.00
2019-02-25T04:42:31.156Z,102447.00
2019-02-25T04:45:13.002Z,102503.00
2019-02-25T04:48:00.643Z,102444.00
2019-02-25T04:50:42.445Z,102545.00
2019-02-25T04:53:10.510Z,102673.00
2019-02-25T04:55:38.505Z,102669.00
2019-02-25T04:58:06.530Z,102655.00
2019-02-25T05:00:34.517Z,102652.00
2019-02-25T05:03:21.946Z,102390.00
2019-02-25T05:06:04.041Z,102663.00
2019-02-25T05:08:51.391Z,102674.00
2019-02-25T05:14:02.528Z,102658.00
2019-02-25T05:16:49.972Z,102305.00
2019-02-25T05:19:30.850Z,102664.00
2019-02-25T05:22:11.994Z,102783.00
2019-02-25T05:24:59.919Z,102799.00
2019-02-25T05:27:40.160Z,102660.00
2019-02-25T05:30:27.840Z,102464.00
2019-02-25T05:33:08.411Z,102665.00
2019-02-25T05:35:52.146Z,102665.00
2019-02-25T05:38:39.770Z,102672.00
2019-02-25T05:41:07.746Z,102659.00
2019-02-25T05:43:35.750Z,102661.00
2019-02-25T05:46:04.799Z,102663.00
2019-02-25T05:48:52.501Z,102745.00
2019-02-25T05:51:20.427Z,102668.00
2019-02-25T05:53:48.374Z,102685.00
2019-02-25T05:56:30.661Z,102678.00
2019-02-25T05:59:19.129Z,102675.00
2019-02-25T06:01:59.589Z,102671.00
2019-02-25T06:04:30.309Z,102677.00
2019-02-25T06:06:58.387Z,102671.00
2019-02-25T06:09:26.290Z,102663.00
2019-02-25T06:12:13.697Z,102717.00
2019-02-25T06:14:41.747Z,102663.00
2019-02-25T06:17:11.497Z,102665.00
2019-02-25T06:19:39.671Z,102671.00
2019-02-25T06:22:22.762Z,102745.00
2019-02-25T06:25:03.694Z,102671.00
2019-02-25T06:27:44.342Z,102439.00
2019-02-25T06:30:31.979Z,102369.00
2019-02-25T06:33:14.895Z,102414.00
2019-02-25T06:35:42.863Z,102669.00
2019-02-25T06:38:25.097Z,102678.00
2019-02-25T06:41:08.648Z,102681.00
2019-02-25T06:43:56.210Z,102678.00
2019-02-25T06:46:37.177Z,102744.00
2019-02-25T06:49:24.607Z,102369.00
2019-02-25T06:51:52.519Z,102685.00
2019-02-25T06:54:20.491Z,102669.00
2019-02-25T06:56:48.536Z,102685.00
2019-02-25T06:59:16.611Z,102687.00
2019-02-25T07:01:44.574Z,102679.00
2019-02-25T07:04:34.812Z,102688.00
2019-02-25T07:07:18.998Z,102685.00
2019-02-25T07:10:26.288Z,102356.00
2019-02-25T07:13:14.012Z,102690.00
2019-02-25T07:16:21.188Z,102736.00
2019-02-25T07:22:08.347Z,102686.00
2019-02-25T07:24:56.781Z,102695.00
2019-02-25T07:27:44.503Z,102690.00
2019-02-25T07:30:32.006Z,102680.00
2019-02-25T07:33:36.288Z,102675.00
2019-02-25T07:36:23.853Z,102682.00
2019-02-25T07:39:11.573Z,102677.00
2019-02-25T07:42:15.751Z,102683.00
2019-02-25T07:45:27.077Z,102726.00
2019-02-25T07:48:31.148Z,102678.00
2019-02-25T07:51:34.180Z,102726.00
2019-02-25T07:54:21.863Z,102699.00
2019-02-25T07:56:57.609Z,102704.00
2019-02-25T08:00:05.426Z,102583.00
2019-02-25T08:02:54.257Z,102713.00
2019-02-25T08:05:41.862Z,102714.00
2019-02-25T08:08:15.910Z,102708.00
2019-02-25T08:11:23.809Z,102512.00
2019-02-25T08:14:13.948Z,102713.00
2019-02-25T08:17:21.232Z,102711.00
2019-02-25T08:20:23.125Z,102728.00
2019-02-25T08:23:10.844Z,102719.00
2019-02-25T08:25:58.546Z,102717.00
2019-02-25T08:28:46.017Z,102714.00
2019-02-25T08:31:50.521Z,102718.00
2019-02-25T08:34:54.018Z,102703.00
2019-02-25T08:41:19.304Z,102710.00
2019-02-25T08:44:29.444Z,102832.00
2019-02-25T08:47:15.177Z,102710.00
2019-02-25T08:49:46.245Z,102723.00
2019-02-25T08:52:14.265Z,102723.00
2019-02-25T08:55:02.629Z,102644.00
2019-02-25T09:00:37.415Z,102602.00
2019-02-25T09:03:24.889Z,102703.00
2019-02-25T09:05:53.040Z,102701.00
2019-02-25T09:08:33.919Z,102723.00
2019-02-25T09:11:21.577Z,102681.00
2019-02-25T09:14:02.388Z,102452.00
2019-02-25T09:16:30.315Z,102689.00
2019-02-25T09:18:58.316Z,102681.00
2019-02-25T09:21:45.741Z,102689.00
2019-02-25T09:24:25.921Z,102609.00
2019-02-25T09:27:13.860Z,102507.00
2019-02-25T09:29:41.767Z,102696.00
2019-02-25T09:32:09.807Z,102693.00
2019-02-25T09:34:38.136Z,102694.00
2019-02-25T09:37:18.422Z,102700.00
2019-02-25T09:39:59.470Z,102520.00
2019-02-25T09:42:47.140Z,102690.00
2019-02-25T09:45:34.275Z,102505.00
2019-02-25T09:48:14.611Z,102682.00
2019-02-25T09:51:02.224Z,102690.00
2019-02-25T09:53:31.027Z,102682.00
2019-02-25T09:56:18.470Z,102495.00
2019-02-25T09:59:00.372Z,102678.00
2019-02-25T10:01:47.782Z,102752.00
2019-02-25T10:04:31.819Z,102477.00
2019-02-25T10:07:20.059Z,102766.00
2019-02-25T10:10:00.595Z,102676.00
2019-02-25T10:12:48.330Z,102669.00
2019-02-25T10:15:16.325Z,102668.00
2019-02-25T10:17:44.564Z,102671.00
2019-02-25T10:20:12.503Z,102672.00
2019-02-25T10:22:40.516Z,102673.00
2019-02-25T10:25:08.700Z,102669.00
2019-02-25T10:27:36.655Z,102652.00
2019-02-25T10:30:06.424Z,102656.00
2019-02-25T10:32:48.300Z,102619.00
2019-02-25T10:35:17.734Z,102659.00
2019-02-25T10:37:45.822Z,102661.00
2019-02-25T10:40:15.541Z,102666.00
2019-02-25T10:43:03.064Z,102467.00
2019-02-25T10:45:31.030Z,102666.00
2019-02-25T10:48:12.871Z,102675.00
2019-02-25T10:51:00.498Z,102669.00
2019-02-25T10:53:43.025Z,102692.00
2019-02-25T10:56:35.869Z,102679.00
2019-02-25T10:59:20.723Z,102673.00
2019-02-25T11:02:10.664Z,102661.00
2019-02-25T11:05:11.831Z,102668.00
2019-02-25T11:11:03.893Z,102536.00
2019-02-25T11:13:45.079Z,102670.00
2019-02-25T11:16:32.823Z,102672.00
2019-02-25T11:19:16.242Z,102666.00
2019-02-25T11:22:05.554Z,102655.00
2019-02-25T11:24:53.428Z,102346.00
2019-02-25T11:27:42.880Z,102660.00
2019-02-25T11:30:12.135Z,102652.00
2019-02-25T11:33:00.881Z,102661.00
2019-02-25T11:35:48.741Z,102376.00
2019-02-25T11:38:17.020Z,102662.00
2019-02-25T11:41:07.086Z,102648.00
2019-02-25T11:43:35.893Z,102628.00
2019-02-25T11:46:23.318Z,102638.00
2019-02-25T11:49:05.245Z,102687.00
2019-02-25T11:51:52.828Z,102638.00
2019-02-25T11:54:34.124Z,102465.00
2019-02-25T11:57:21.563Z,102624.00
2019-02-25T12:00:02.088Z,102490.00
2019-02-25T12:05:39.553Z,102632.00
2019-02-25T12:08:21.726Z,102631.00
2019-02-25T12:11:10.086Z,102405.00
2019-02-25T12:13:38.911Z,102622.00
2019-02-25T12:16:06.993Z,102625.00
2019-02-25T12:21:28.522Z,102611.00
2019-02-25T12:23:56.728Z,102608.00
2019-02-25T12:26:24.741Z,102605.00
2019-02-25T12:28:52.877Z,102600.00
2019-02-25T12:31:21.298Z,102600.00
2019-02-25T12:33:49.472Z,102594.00
2019-02-25T12:36:17.439Z,102589.00
2019-02-25T12:38:46.276Z,102605.00
2019-02-25T12:41:14.285Z,102601.00
2019-02-25T12:43:42.404Z,102601.00
2019-02-25T12:46:10.459Z,102596.00
2019-02-25T12:48:58.357Z,102448.00
2019-02-25T12:51:29.054Z,102593.00
2019-02-25T12:54:17.128Z,102377.00
2019-02-25T12:56:57.761Z,102591.00
2019-02-25T12:59:26.063Z,102580.00
2019-02-25T13:01:54.133Z,102582.00
2019-02-25T13:04:22.310Z,102577.00
2019-02-25T13:07:04.615Z,102357.00
2019-02-25T13:09:52.319Z,102565.00
2019-02-25T13:12:33.033Z,102663.00
2019-02-25T13:17:57.650Z,102553.00
2019-02-25T13:20:26.004Z,102554.00
2019-02-25T13:23:07.876Z,102377.00
2019-02-25T13:25:36.002Z,102536.00
2019-02-25T13:28:04.415Z,102534.00
2019-02-25T13:30:34.583Z,102527.00
2019-02-25T13:33:02.672Z,102523.00
2019-02-25T13:35:50.521Z,102581.00
2019-02-25T13:38:18.699Z,102510.00
2019-02-25T13:40:47.194Z,102502.00
2019-02-25T13:43:15.481Z,102498.00
2019-02-25T13:45:44.137Z,102490.00
2019-02-25T13:48:12.462Z,102482.00
2019-02-25T13:50:41.200Z,102481.00
2019-02-25T13:53:09.567Z,102470.00
2019-02-25T13:56:06.249Z,102464.00
2019-02-25T13:58:34.572Z,102459.00
2019-02-25T14:01:17.032Z,102296.00
2019-02-25T14:04:05.033Z,102246.00
2019-02-25T14:06:34.062Z,102452.00
2019-02-25T14:09:07.240Z,102441.00
2019-02-25T14:11:52.263Z,102374.00
2019-02-25T14:14:20.564Z,102443.00
2019-02-25T14:16:48.847Z,102449.00
2019-02-25T14:19:17.319Z,102449.00
2019-02-25T14:21:45.409Z,102440.00
2019-02-25T14:24:13.482Z,102434.00
2019-02-25T14:26:56.503Z,102434.00
2019-02-25T14:29:26.404Z,102433.00
2019-02-25T14:31:54.966Z,102433.00
2019-02-25T14:34:23.136Z,102211.00
2019-02-25T14:36:52.501Z,102411.00
2019-02-25T14:39:36.005Z,102286.00
2019-02-25T14:42:25.999Z,102405.00
2019-02-25T14:45:29.004Z,102268.00
2019-02-25T14:48:20.450Z,102399.00
2019-02-25T14:51:26.328Z,102408.00
2019-02-25T14:54:08.663Z,102412.00
2019-02-25T14:56:36.732Z,102402.00
2019-02-25T14:59:07.622Z,102411.00
2019-02-25T15:01:54.376Z,102151.00
2019-02-25T15:04:37.421Z,102410.00
2019-02-25T15:07:26.017Z,102243.00
2019-02-25T15:10:08.469Z,102313.00
2019-02-25T15:12:58.972Z,102242.00
2019-02-25T15:15:43.356Z,102400.00
2019-02-25T15:18:31.341Z,102417.00
2019-02-25T15:21:20.622Z,102250.00
2019-02-25T15:23:48.935Z,102408.00
2019-02-25T15:26:42.906Z,102392.00
2019-02-25T15:29:19.127Z,102407.00
2019-02-25T15:31:48.540Z,102399.00
2019-02-25T15:34:50.773Z,102202.00
2019-02-25T15:37:40.607Z,102257.00
2019-02-25T15:40:23.233Z,102408.00
2019-02-25T15:43:13.343Z,102395.00
2019-02-25T15:46:16.552Z,102461.00
2019-02-25T15:48:44.536Z,102395.00
2019-02-25T15:51:25.367Z,102398.00
2019-02-25T15:54:12.946Z,102395.00
2019-02-25T15:56:54.114Z,102263.00
2019-02-25T15:59:31.776Z,102390.00
2019-02-25T16:02:26.146Z,102178.00
2019-02-25T16:05:13.998Z,102397.00
2019-02-25T16:08:00.643Z,102399.00
2019-02-25T16:10:49.470Z,102265.00
2019-02-25T16:13:37.811Z,102295.00
2019-02-25T16:16:25.426Z,102398.00
2019-02-25T16:19:16.970Z,102271.00
2019-02-25T16:21:58.506Z,102177.00
2019-02-25T16:24:46.756Z,102216.00
2019-02-25T16:27:16.461Z,102392.00
2019-02-25T16:29:51.822Z,102392.00
2019-02-25T16:32:21.435Z,102400.00
2019-02-25T16:34:50.532Z,102400.00
2019-02-25T16:37:33.463Z,102408.00
2019-02-25T16:40:24.426Z,102226.00
2019-02-25T16:43:07.742Z,102383.00
2019-02-25T16:45:55.533Z,102410.00
2019-02-25T16:48:35.962Z,102410.00
2019-02-25T16:51:24.254Z,102509.00
2019-02-25T16:53:53.738Z,102415.00
2019-02-25T16:56:34.394Z,102326.00
2019-02-25T16:59:18.505Z,102409.00
2019-02-25T17:02:01.964Z,102346.00
2019-02-25T17:04:31.806Z,102405.00
2019-02-25T17:07:00.292Z,102411.00
2019-02-25T17:09:29.429Z,102416.00
2019-02-25T17:11:58.138Z,102409.00
2019-02-25T17:15:10.203Z,102512.00
2019-02-25T17:17:45.166Z,102410.00
2019-02-25T17:20:32.639Z,102418.00
2019-02-25T17:23:14.152Z,102419.00
2019-02-25T17:25:43.510Z,102419.00
2019-02-25T17:28:48.817Z,102432.00
2019-02-25T17:31:32.348Z,102200.00
2019-02-25T17:34:01.057Z,102433.00
2019-02-25T17:36:50.041Z,102432.00
2019-02-25T17:39:39.778Z,102431.00
2019-02-25T17:42:28.958Z,102436.00
2019-02-25T17:45:18.722Z,102436.00
2019-02-25T17:48:08.377Z,102221.00
2019-02-25T17:51:11.102Z,102453.00
2019-02-25T17:53:58.738Z,102469.00
2019-02-25T17:56:40.861Z,102431.00
2019-02-25T17:59:31.613Z,102459.00
2019-02-25T18:02:12.826Z,102382.00
2019-02-25T18:05:00.453Z,102434.00
2019-02-25T18:07:50.352Z,102431.00
2019-02-25T18:10:37.815Z,102434.00
2019-02-25T18:13:18.207Z,102237.00
2019-02-25T18:16:08.134Z,102497.00
2019-02-25T18:18:56.895Z,102435.00
2019-02-25T18:21:48.070Z,102524.00
2019-02-25T18:24:16.318Z,102446.00
2019-02-25T18:27:06.923Z,102275.00
2019-02-25T18:29:35.667Z,102438.00
2019-02-25T18:32:05.796Z,102443.00
2019-02-25T18:34:34.872Z,102442.00
2019-02-25T18:37:04.282Z,102442.00
2019-02-25T18:39:47.936Z,102487.00
2019-02-25T18:43:00.505Z,102501.00
2019-02-25T18:45:50.933Z,102390.00
2019-02-25T18:48:40.718Z,102222.00
2019-02-25T18:51:24.183Z,102320.00
2019-02-25T18:54:11.527Z,102438.00
2019-02-25T18:56:56.999Z,102500.00
2019-02-25T18:59:45.261Z,102270.00
2019-02-25T19:02:33.414Z,102446.00
2019-02-25T19:05:15.580Z,102450.00
2019-02-25T19:08:03.851Z,102448.00
2019-02-25T19:10:46.131Z,102305.00
2019-02-25T19:13:15.908Z,102443.00
2019-02-25T19:16:02.190Z,102443.00
2019-02-25T19:18:52.906Z,102243.00
2019-02-25T19:21:21.154Z,102447.00
2019-02-25T19:24:09.940Z,102321.00
2019-02-25T19:27:06.598Z,102438.00
2019-02-25T19:29:58.696Z,102441.00
2019-02-25T19:33:10.627Z,102520.00
2019-02-25T19:35:30.995Z,102433.00
2019-02-25T19:38:19.872Z,102438.00
2019-02-25T19:41:11.052Z,102371.00
2019-02-25T19:43:59.475Z,102269.00
2019-02-25T19:46:48.665Z,102178.00
2019-02-25T19:49:51.260Z,102529.00
2019-02-25T19:52:41.842Z,102229.00
2019-02-25T19:55:46.137Z,102253.00
2019-02-25T19:58:35.891Z,102453.00
2019-02-25T20:01:29.350Z,102430.00
2019-02-25T20:03:59.595Z,102449.00
2019-02-25T20:06:29.219Z,102452.00
2019-02-25T20:09:21.358Z,102441.00
2019-02-25T20:12:04.718Z,102583.00
2019-02-25T20:14:52.736Z,102199.00
2019-02-25T20:17:21.924Z,102440.00
2019-02-25T20:19:51.398Z,102439.00
2019-02-25T20:22:34.476Z,102486.00
2019-02-25T20:25:24.523Z,102185.00
2019-02-25T20:28:26.828Z,102245.00
2019-02-25T20:30:55.207Z,102443.00
2019-02-25T20:33:39.081Z,102341.00
2019-02-25T20:36:28.427Z,102363.00
2019-02-25T20:39:29.109Z,102308.00
2019-02-25T20:42:20.924Z,102445.00
2019-02-25T20:45:08.776Z,102553.00
2019-02-25T20:47:59.463Z,102222.00
2019-02-25T20:50:41.399Z,102163.00
2019-02-25T20:53:31.681Z,102440.00
2019-02-25T20:56:12.405Z,102389.00
2019-02-25T20:59:01.086Z,102198.00
2019-02-25T21:02:07.181Z,102431.00
2019-02-25T21:04:36.515Z,102439.00
2019-02-25T21:07:38.710Z,102267.00
2019-02-25T21:10:27.872Z,102432.00
2019-02-25T21:13:33.580Z,102510.00
2019-02-25T21:16:04.832Z,102421.00
2019-02-25T21:18:46.579Z,102502.00
2019-02-25T21:21:16.202Z,102412.00
2019-02-25T21:23:44.565Z,102409.00
2019-02-25T21:26:33.980Z,102234.00
2019-02-25T21:29:38.829Z,102191.00
2019-02-25T21:32:28.477Z,102219.00
2019-02-25T21:35:09.716Z,102371.00
2019-02-25T21:37:57.268Z,102464.00
2019-02-25T21:40:39.504Z,102373.00
2019-02-25T21:43:29.544Z,102406.00
2019-02-25T21:46:10.299Z,102254.00
2019-02-25T21:48:38.489Z,102410.00
2019-02-25T21:51:22.837Z,102401.00
2019-02-25T21:54:10.595Z,102407.00
2019-02-25T21:56:38.873Z,102400.00
2019-02-25T21:59:08.352Z,102410.00
2019-02-25T22:01:57.797Z,102347.00
2019-02-25T22:04:48.066Z,102412.00
2019-02-25T22:07:31.536Z,102506.00
2019-02-25T22:10:00.565Z,102394.00
2019-02-25T22:12:30.977Z,102404.00
2019-02-25T22:15:07.515Z,102404.00
2019-02-25T22:17:37.963Z,102403.00
2019-02-25T22:20:12.182Z,102388.00
2019-02-25T22:22:47.182Z,102394.00
2019-02-25T22:25:15.788Z,102407.00
2019-02-25T22:27:45.648Z,102405.00
2019-02-25T22:30:14.689Z,102404.00
2019-02-25T22:32:43.244Z,102406.00
2019-02-25T22:35:12.845Z,102400.00
2019-02-25T22:38:02.833Z,102410.00
2019-02-25T22:40:33.968Z,102402.00
2019-02-25T22:43:21.521Z,102396.00
2019-02-25T22:46:07.640Z,102397.00
2019-02-25T22:48:58.777Z,102400.00
2019-02-25T22:51:35.364Z,102398.00
2019-02-25T22:54:06.197Z,102404.00
2019-02-25T22:57:10.120Z,102312.00
2019-02-25T22:59:57.696Z,102257.00
2019-02-25T23:02:28.077Z,102403.00
2019-02-25T23:04:56.303Z,102402.00
2019-02-25T23:07:41.384Z,102287.00
2019-02-25T23:10:28.590Z,102547.00
2019-02-25T23:13:09.491Z,102406.00
2019-02-25T23:15:57.267Z,102388.00
2019-02-25T23:18:38.985Z,102097.00
2019-02-25T23:21:28.801Z,102406.00
2019-02-25T23:24:30.458Z,102412.00
2019-02-25T23:27:18.082Z,102412.00
2019-02-25T23:29:48.301Z,102407.00
2019-02-25T23:32:38.779Z,102135.00
2019-02-25T23:35:42.726Z,102183.00
2019-02-25T23:38:29.927Z,102412.00
2019-02-25T23:41:05.418Z,102411.00
2019-02-25T23:43:59.643Z,102418.00
2019-02-25T23:46:40.161Z,102406.00
2019-02-25T23:49:27.274Z,102171.00
2019-02-25T23:52:10.312Z,102411.00
2019-02-25T23:54:51.970Z,102422.00
2019-02-25T23:57:21.705Z,102415.00
